sensor_id;sensor_type;location;lat;lon;timestamp;P1;durP1;ratioP1;P2;durP2;ratioP2
16478;SDS011;8350;52.316;10.530;2024-03-02T00:00:32;9.30;;;6.63;;
16478;SDS011;8350;52.316;10.530;2024-03-02T00:03:04;6.68;;;5.28;;
16478;SDS011;8350;52.316;10.530;2024-03-02T00:05:34;7.63;;;6.10;;
16478;SDS011;8350;52.316;10.530;2024-03-02T00:08:03;8.40;;;5.38;;
16478;SDS011;8350;52.316;10.530;2024-03-02T00:10:34;8.88;;;5.80;;
16478;SDS011;8350;52.316;10.530;2024-03-02T00:13:04;9.98;;;6.57;;
16478;SDS011;8350;52.316;10.530;2024-03-02T00:15:40;7.57;;;5.63;;
16478;SDS011;8350;52.316;10.530;2024-03-02T00:18:13;9.88;;;6.25;;
16478;SDS011;8350;52.316;10.530;2024-03-02T00:20:45;9.55;;;6.18;;
16478;SDS011;8350;52.316;10.530;2024-03-02T00:23:15;7.60;;;5.53;;
16478;SDS011;8350;52.316;10.530;2024-03-02T00:25:44;7.82;;;4.60;;
16478;SDS011;8350;52.316;10.530;2024-03-02T00:28:13;8.95;;;5.35;;
16478;SDS011;8350;52.316;10.530;2024-03-02T00:30:50;8.00;;;5.40;;
16478;SDS011;8350;52.316;10.530;2024-03-02T00:33:21;9.15;;;5.97;;
16478;SDS011;8350;52.316;10.530;2024-03-02T00:35:48;7.22;;;5.32;;
16478;SDS011;8350;52.316;10.530;2024-03-02T00:38:17;7.63;;;5.05;;
16478;SDS011;8350;52.316;10.530;2024-03-02T00:40:44;7.88;;;5.63;;
16478;SDS011;8350;52.316;10.530;2024-03-02T00:46:04;9.15;;;6.18;;
16478;SDS011;8350;52.316;10.530;2024-03-02T00:48:32;8.07;;;5.68;;
16478;SDS011;8350;52.316;10.530;2024-03-02T00:51:01;8.48;;;6.38;;
16478;SDS011;8350;52.316;10.530;2024-03-02T00:53:30;6.88;;;6.13;;
16478;SDS011;8350;52.316;10.530;2024-03-02T00:55:58;9.18;;;6.25;;
16478;SDS011;8350;52.316;10.530;2024-03-02T00:58:25;6.72;;;5.28;;
16478;SDS011;8350;52.316;10.530;2024-03-02T01:00:52;8.38;;;5.75;;
16478;SDS011;8350;52.316;10.530;2024-03-02T01:03:19;8.25;;;5.47;;
16478;SDS011;8350;52.316;10.530;2024-03-02T01:05:46;8.45;;;5.72;;
16478;SDS011;8350;52.316;10.530;2024-03-02T01:08:13;7.80;;;5.63;;
16478;SDS011;8350;52.316;10.530;2024-03-02T01:10:41;9.48;;;5.50;;
16478;SDS011;8350;52.316;10.530;2024-03-02T01:13:08;6.72;;;6.00;;
16478;SDS011;8350;52.316;10.530;2024-03-02T01:15:35;6.45;;;4.88;;
16478;SDS011;8350;52.316;10.530;2024-03-02T01:18:02;9.32;;;5.60;;
16478;SDS011;8350;52.316;10.530;2024-03-02T01:20:29;7.97;;;5.28;;
16478;SDS011;8350;52.316;10.530;2024-03-02T01:22:56;7.65;;;5.93;;
16478;SDS011;8350;52.316;10.530;2024-03-02T01:25:24;8.63;;;5.20;;
16478;SDS011;8350;52.316;10.530;2024-03-02T01:27:53;7.18;;;5.43;;
16478;SDS011;8350;52.316;10.530;2024-03-02T01:30:19;9.35;;;6.10;;
16478;SDS011;8350;52.316;10.530;2024-03-02T01:32:46;9.10;;;5.30;;
16478;SDS011;8350;52.316;10.530;2024-03-02T01:35:13;9.00;;;5.57;;
16478;SDS011;8350;52.316;10.530;2024-03-02T01:37:41;6.65;;;4.90;;
16478;SDS011;8350;52.316;10.530;2024-03-02T01:40:08;7.03;;;5.45;;
16478;SDS011;8350;52.316;10.530;2024-03-02T01:42:36;6.88;;;5.15;;
16478;SDS011;8350;52.316;10.530;2024-03-02T01:45:05;8.43;;;6.13;;
16478;SDS011;8350;52.316;10.530;2024-03-02T01:47:34;7.70;;;5.80;;
16478;SDS011;8350;52.316;10.530;2024-03-02T01:50:01;8.43;;;4.90;;
16478;SDS011;8350;52.316;10.530;2024-03-02T01:52:28;8.65;;;5.40;;
16478;SDS011;8350;52.316;10.530;2024-03-02T01:54:55;8.07;;;5.25;;
16478;SDS011;8350;52.316;10.530;2024-03-02T01:57:24;8.45;;;5.30;;
16478;SDS011;8350;52.316;10.530;2024-03-02T01:59:51;8.45;;;5.70;;
16478;SDS011;8350;52.316;10.530;2024-03-02T02:02:19;8.50;;;5.90;;
16478;SDS011;8350;52.316;10.530;2024-03-02T02:04:46;8.23;;;5.93;;
16478;SDS011;8350;52.316;10.530;2024-03-02T02:07:15;6.43;;;4.72;;
16478;SDS011;8350;52.316;10.530;2024-03-02T02:09:42;8.00;;;5.40;;
16478;SDS011;8350;52.316;10.530;2024-03-02T02:12:10;9.38;;;5.80;;
16478;SDS011;8350;52.316;10.530;2024-03-02T02:14:37;10.20;;;5.80;;
16478;SDS011;8350;52.316;10.530;2024-03-02T02:17:05;6.40;;;5.00;;
16478;SDS011;8350;52.316;10.530;2024-03-02T02:19:33;9.00;;;5.63;;
16478;SDS011;8350;52.316;10.530;2024-03-02T02:22:03;7.45;;;5.57;;
16478;SDS011;8350;52.316;10.530;2024-03-02T02:24:30;9.48;;;5.88;;
16478;SDS011;8350;52.316;10.530;2024-03-02T02:26:57;8.40;;;5.63;;
16478;SDS011;8350;52.316;10.530;2024-03-02T02:29:24;8.98;;;5.70;;
16478;SDS011;8350;52.316;10.530;2024-03-02T02:31:51;7.97;;;5.78;;
16478;SDS011;8350;52.316;10.530;2024-03-02T02:34:19;9.07;;;5.95;;
16478;SDS011;8350;52.316;10.530;2024-03-02T02:36:46;8.23;;;5.00;;
16478;SDS011;8350;52.316;10.530;2024-03-02T02:39:15;7.70;;;6.57;;
16478;SDS011;8350;52.316;10.530;2024-03-02T02:41:44;7.13;;;6.25;;
16478;SDS011;8350;52.316;10.530;2024-03-02T02:44:13;8.45;;;5.45;;
16478;SDS011;8350;52.316;10.530;2024-03-02T02:46:40;8.90;;;6.28;;
16478;SDS011;8350;52.316;10.530;2024-03-02T02:49:07;6.93;;;4.97;;
16478;SDS011;8350;52.316;10.530;2024-03-02T02:51:36;8.45;;;5.75;;
16478;SDS011;8350;52.316;10.530;2024-03-02T02:54:06;6.40;;;5.25;;
16478;SDS011;8350;52.316;10.530;2024-03-02T02:56:34;8.75;;;6.78;;
16478;SDS011;8350;52.316;10.530;2024-03-02T02:59:03;10.68;;;7.03;;
16478;SDS011;8350;52.316;10.530;2024-03-02T03:01:29;10.18;;;5.80;;
16478;SDS011;8350;52.316;10.530;2024-03-02T03:03:56;9.07;;;5.88;;
16478;SDS011;8350;52.316;10.530;2024-03-02T03:06:26;10.00;;;6.30;;
16478;SDS011;8350;52.316;10.530;2024-03-02T03:08:52;7.22;;;5.32;;
16478;SDS011;8350;52.316;10.530;2024-03-02T03:11:19;6.93;;;5.40;;
16478;SDS011;8350;52.316;10.530;2024-03-02T03:13:49;10.43;;;6.50;;
16478;SDS011;8350;52.316;10.530;2024-03-02T03:16:18;10.80;;;6.80;;
16478;SDS011;8350;52.316;10.530;2024-03-02T03:18:45;7.30;;;5.43;;
16478;SDS011;8350;52.316;10.530;2024-03-02T03:21:12;6.63;;;5.55;;
16478;SDS011;8350;52.316;10.530;2024-03-02T03:23:42;7.28;;;5.07;;
16478;SDS011;8350;52.316;10.530;2024-03-02T03:26:09;8.57;;;6.22;;
16478;SDS011;8350;52.316;10.530;2024-03-02T03:28:35;11.20;;;6.88;;
16478;SDS011;8350;52.316;10.530;2024-03-02T03:31:04;10.70;;;6.13;;
16478;SDS011;8350;52.316;10.530;2024-03-02T03:33:31;7.55;;;5.55;;
16478;SDS011;8350;52.316;10.530;2024-03-02T03:35:58;10.10;;;7.15;;
16478;SDS011;8350;52.316;10.530;2024-03-02T03:38:25;10.90;;;7.00;;
16478;SDS011;8350;52.316;10.530;2024-03-02T03:40:52;10.18;;;6.13;;
16478;SDS011;8350;52.316;10.530;2024-03-02T03:43:18;9.90;;;7.53;;
16478;SDS011;8350;52.316;10.530;2024-03-02T03:45:45;9.73;;;7.60;;
16478;SDS011;8350;52.316;10.530;2024-03-02T03:48:13;9.27;;;5.45;;
16478;SDS011;8350;52.316;10.530;2024-03-02T03:50:40;9.95;;;6.20;;
16478;SDS011;8350;52.316;10.530;2024-03-02T03:53:07;10.80;;;7.22;;
16478;SDS011;8350;52.316;10.530;2024-03-02T03:55:34;8.77;;;6.15;;
16478;SDS011;8350;52.316;10.530;2024-03-02T03:58:01;8.98;;;6.38;;
16478;SDS011;8350;52.316;10.530;2024-03-02T04:00:27;8.07;;;6.03;;
16478;SDS011;8350;52.316;10.530;2024-03-02T04:02:54;7.85;;;5.82;;
16478;SDS011;8350;52.316;10.530;2024-03-02T04:05:23;10.75;;;5.80;;
16478;SDS011;8350;52.316;10.530;2024-03-02T04:07:49;7.13;;;5.57;;
16478;SDS011;8350;52.316;10.530;2024-03-02T04:10:16;9.32;;;5.88;;
16478;SDS011;8350;52.316;10.530;2024-03-02T04:12:45;10.68;;;6.47;;
16478;SDS011;8350;52.316;10.530;2024-03-02T04:15:12;10.35;;;6.40;;
16478;SDS011;8350;52.316;10.530;2024-03-02T04:17:39;9.45;;;6.28;;
16478;SDS011;8350;52.316;10.530;2024-03-02T04:20:06;8.95;;;6.47;;
16478;SDS011;8350;52.316;10.530;2024-03-02T04:22:35;7.95;;;5.57;;
16478;SDS011;8350;52.316;10.530;2024-03-02T04:25:02;7.63;;;5.60;;
16478;SDS011;8350;52.316;10.530;2024-03-02T04:27:30;7.90;;;5.88;;
16478;SDS011;8350;52.316;10.530;2024-03-02T04:29:58;8.80;;;5.97;;
16478;SDS011;8350;52.316;10.530;2024-03-02T04:32:27;9.27;;;6.07;;
16478;SDS011;8350;52.316;10.530;2024-03-02T04:34:55;9.55;;;6.47;;
16478;SDS011;8350;52.316;10.530;2024-03-02T04:37:22;9.93;;;6.55;;
16478;SDS011;8350;52.316;10.530;2024-03-02T04:39:50;9.15;;;5.68;;
16478;SDS011;8350;52.316;10.530;2024-03-02T04:42:17;9.88;;;5.50;;
16478;SDS011;8350;52.316;10.530;2024-03-02T04:44:43;8.90;;;5.50;;
16478;SDS011;8350;52.316;10.530;2024-03-02T04:47:10;7.30;;;6.25;;
16478;SDS011;8350;52.316;10.530;2024-03-02T04:49:37;8.55;;;6.20;;
16478;SDS011;8350;52.316;10.530;2024-03-02T04:52:04;9.48;;;6.50;;
16478;SDS011;8350;52.316;10.530;2024-03-02T04:54:31;8.30;;;5.75;;
16478;SDS011;8350;52.316;10.530;2024-03-02T04:57:01;8.85;;;5.43;;
16478;SDS011;8350;52.316;10.530;2024-03-02T04:59:28;6.72;;;5.10;;
16478;SDS011;8350;52.316;10.530;2024-03-02T05:01:54;6.90;;;5.88;;
16478;SDS011;8350;52.316;10.530;2024-03-02T05:04:21;7.60;;;5.18;;
16478;SDS011;8350;52.316;10.530;2024-03-02T05:06:47;9.27;;;5.78;;
16478;SDS011;8350;52.316;10.530;2024-03-02T05:09:17;9.32;;;6.32;;
16478;SDS011;8350;52.316;10.530;2024-03-02T05:11:44;8.13;;;5.43;;
16478;SDS011;8350;52.316;10.530;2024-03-02T05:14:41;9.35;;;6.50;;
16478;SDS011;8350;52.316;10.530;2024-03-02T05:17:09;8.13;;;6.00;;
16478;SDS011;8350;52.316;10.530;2024-03-02T05:19:36;7.63;;;5.65;;
16478;SDS011;8350;52.316;10.530;2024-03-02T05:22:03;8.18;;;6.10;;
16478;SDS011;8350;52.316;10.530;2024-03-02T05:24:30;7.85;;;5.32;;
16478;SDS011;8350;52.316;10.530;2024-03-02T05:26:57;8.00;;;5.70;;
16478;SDS011;8350;52.316;10.530;2024-03-02T05:29:24;8.88;;;6.10;;
16478;SDS011;8350;52.316;10.530;2024-03-02T05:31:52;6.80;;;4.97;;
16478;SDS011;8350;52.316;10.530;2024-03-02T05:34:19;9.57;;;5.45;;
16478;SDS011;8350;52.316;10.530;2024-03-02T05:36:46;9.18;;;6.20;;
16478;SDS011;8350;52.316;10.530;2024-03-02T05:39:13;7.63;;;5.03;;
16478;SDS011;8350;52.316;10.530;2024-03-02T05:41:40;6.05;;;5.18;;
16478;SDS011;8350;52.316;10.530;2024-03-02T05:44:07;7.15;;;5.78;;
16478;SDS011;8350;52.316;10.530;2024-03-02T05:46:34;8.73;;;5.97;;
16478;SDS011;8350;52.316;10.530;2024-03-02T05:49:02;7.60;;;5.88;;
16478;SDS011;8350;52.316;10.530;2024-03-02T05:51:29;6.45;;;5.40;;
16478;SDS011;8350;52.316;10.530;2024-03-02T05:53:56;8.10;;;6.85;;
16478;SDS011;8350;52.316;10.530;2024-03-02T05:56:23;9.00;;;5.75;;
16478;SDS011;8350;52.316;10.530;2024-03-02T05:58:50;9.93;;;6.10;;
16478;SDS011;8350;52.316;10.530;2024-03-02T06:01:32;11.45;;;5.63;;
16478;SDS011;8350;52.316;10.530;2024-03-02T06:04:03;10.55;;;6.90;;
16478;SDS011;8350;52.316;10.530;2024-03-02T06:06:30;6.93;;;4.88;;
16478;SDS011;8350;52.316;10.530;2024-03-02T06:08:57;6.63;;;5.13;;
16478;SDS011;8350;52.316;10.530;2024-03-02T06:11:24;7.40;;;5.55;;
16478;SDS011;8350;52.316;10.530;2024-03-02T06:13:51;6.95;;;5.57;;
16478;SDS011;8350;52.316;10.530;2024-03-02T06:16:17;6.50;;;5.10;;
16478;SDS011;8350;52.316;10.530;2024-03-02T06:18:44;10.85;;;6.05;;
16478;SDS011;8350;52.316;10.530;2024-03-02T06:21:13;8.75;;;5.63;;
16478;SDS011;8350;52.316;10.530;2024-03-02T06:23:39;10.52;;;6.28;;
16478;SDS011;8350;52.316;10.530;2024-03-02T06:26:08;9.55;;;6.60;;
16478;SDS011;8350;52.316;10.530;2024-03-02T06:28:35;8.68;;;5.97;;
16478;SDS011;8350;52.316;10.530;2024-03-02T06:31:02;8.93;;;5.55;;
16478;SDS011;8350;52.316;10.530;2024-03-02T06:33:29;8.65;;;6.43;;
16478;SDS011;8350;52.316;10.530;2024-03-02T06:35:56;9.40;;;6.05;;
16478;SDS011;8350;52.316;10.530;2024-03-02T06:38:24;12.02;;;7.72;;
16478;SDS011;8350;52.316;10.530;2024-03-02T06:40:59;7.50;;;6.47;;
16478;SDS011;8350;52.316;10.530;2024-03-02T06:43:25;8.45;;;5.95;;
16478;SDS011;8350;52.316;10.530;2024-03-02T06:45:54;9.85;;;5.93;;
16478;SDS011;8350;52.316;10.530;2024-03-02T06:48:21;9.18;;;5.95;;
16478;SDS011;8350;52.316;10.530;2024-03-02T06:50:49;10.07;;;7.10;;
16478;SDS011;8350;52.316;10.530;2024-03-02T06:53:17;8.15;;;6.22;;
16478;SDS011;8350;52.316;10.530;2024-03-02T06:55:46;7.07;;;5.07;;
16478;SDS011;8350;52.316;10.530;2024-03-02T06:58:13;8.18;;;6.03;;
16478;SDS011;8350;52.316;10.530;2024-03-02T07:00:40;10.85;;;6.15;;
16478;SDS011;8350;52.316;10.530;2024-03-02T07:03:10;8.80;;;6.50;;
16478;SDS011;8350;52.316;10.530;2024-03-02T07:05:37;7.07;;;5.97;;
16478;SDS011;8350;52.316;10.530;2024-03-02T07:08:04;11.85;;;6.57;;
16478;SDS011;8350;52.316;10.530;2024-03-02T07:10:31;12.43;;;7.38;;
16478;SDS011;8350;52.316;10.530;2024-03-02T07:12:59;9.45;;;5.38;;
16478;SDS011;8350;52.316;10.530;2024-03-02T07:15:26;9.52;;;5.63;;
16478;SDS011;8350;52.316;10.530;2024-03-02T07:18:12;10.57;;;6.45;;
16478;SDS011;8350;52.316;10.530;2024-03-02T07:20:40;10.02;;;6.18;;
16478;SDS011;8350;52.316;10.530;2024-03-02T07:23:07;6.95;;;5.60;;
16478;SDS011;8350;52.316;10.530;2024-03-02T07:25:34;8.68;;;7.35;;
16478;SDS011;8350;52.316;10.530;2024-03-02T07:28:03;10.32;;;7.30;;
16478;SDS011;8350;52.316;10.530;2024-03-02T07:30:30;7.90;;;6.00;;
16478;SDS011;8350;52.316;10.530;2024-03-02T07:32:57;9.55;;;5.63;;
16478;SDS011;8350;52.316;10.530;2024-03-02T07:35:23;8.82;;;5.63;;
16478;SDS011;8350;52.316;10.530;2024-03-02T07:37:52;10.40;;;6.60;;
16478;SDS011;8350;52.316;10.530;2024-03-02T07:40:19;10.05;;;6.95;;
16478;SDS011;8350;52.316;10.530;2024-03-02T07:42:46;9.60;;;6.78;;
16478;SDS011;8350;52.316;10.530;2024-03-02T07:45:14;11.15;;;6.97;;
16478;SDS011;8350;52.316;10.530;2024-03-02T07:47:41;8.60;;;6.30;;
16478;SDS011;8350;52.316;10.530;2024-03-02T07:50:08;13.38;;;7.00;;
16478;SDS011;8350;52.316;10.530;2024-03-02T07:52:41;10.30;;;7.32;;
16478;SDS011;8350;52.316;10.530;2024-03-02T07:55:11;12.63;;;6.25;;
16478;SDS011;8350;52.316;10.530;2024-03-02T07:57:37;9.40;;;5.88;;
16478;SDS011;8350;52.316;10.530;2024-03-02T08:00:05;12.43;;;6.90;;
16478;SDS011;8350;52.316;10.530;2024-03-02T08:02:35;11.52;;;7.38;;
16478;SDS011;8350;52.316;10.530;2024-03-02T08:05:02;9.73;;;7.35;;
16478;SDS011;8350;52.316;10.530;2024-03-02T08:07:29;10.48;;;7.32;;
16478;SDS011;8350;52.316;10.530;2024-03-02T08:09:56;13.07;;;8.55;;
16478;SDS011;8350;52.316;10.530;2024-03-02T08:12:23;11.50;;;7.50;;
16478;SDS011;8350;52.316;10.530;2024-03-02T08:14:50;11.48;;;7.53;;
16478;SDS011;8350;52.316;10.530;2024-03-02T08:17:17;10.30;;;6.38;;
16478;SDS011;8350;52.316;10.530;2024-03-02T08:19:45;10.80;;;7.38;;
16478;SDS011;8350;52.316;10.530;2024-03-02T08:22:13;12.07;;;7.55;;
16478;SDS011;8350;52.316;10.530;2024-03-02T08:24:42;10.40;;;7.32;;
16478;SDS011;8350;52.316;10.530;2024-03-02T08:27:09;10.98;;;7.38;;
16478;SDS011;8350;52.316;10.530;2024-03-02T08:29:37;12.10;;;8.00;;
16478;SDS011;8350;52.316;10.530;2024-03-02T08:32:06;11.82;;;8.50;;
16478;SDS011;8350;52.316;10.530;2024-03-02T08:34:33;10.00;;;7.90;;
16478;SDS011;8350;52.316;10.530;2024-03-02T08:37:02;9.23;;;7.15;;
16478;SDS011;8350;52.316;10.530;2024-03-02T08:39:30;9.93;;;7.63;;
16478;SDS011;8350;52.316;10.530;2024-03-02T08:41:57;10.35;;;7.05;;
16478;SDS011;8350;52.316;10.530;2024-03-02T08:44:23;13.93;;;7.55;;
16478;SDS011;8350;52.316;10.530;2024-03-02T08:46:50;11.43;;;7.55;;
16478;SDS011;8350;52.316;10.530;2024-03-02T08:49:17;11.02;;;7.20;;
16478;SDS011;8350;52.316;10.530;2024-03-02T08:51:46;9.85;;;6.82;;
16478;SDS011;8350;52.316;10.530;2024-03-02T08:54:21;9.27;;;6.85;;
16478;SDS011;8350;52.316;10.530;2024-03-02T08:56:47;9.82;;;7.00;;
16478;SDS011;8350;52.316;10.530;2024-03-02T08:59:16;8.95;;;7.43;;
16478;SDS011;8350;52.316;10.530;2024-03-02T09:01:46;9.63;;;6.97;;
16478;SDS011;8350;52.316;10.530;2024-03-02T09:04:13;9.90;;;6.28;;
16478;SDS011;8350;52.316;10.530;2024-03-02T09:06:40;9.60;;;6.22;;
16478;SDS011;8350;52.316;10.530;2024-03-02T09:09:08;12.32;;;7.68;;
16478;SDS011;8350;52.316;10.530;2024-03-02T09:11:36;11.77;;;7.53;;
16478;SDS011;8350;52.316;10.530;2024-03-02T09:14:03;10.77;;;5.95;;
16478;SDS011;8350;52.316;10.530;2024-03-02T09:16:30;10.95;;;6.53;;
16478;SDS011;8350;52.316;10.530;2024-03-02T09:18:59;9.77;;;6.82;;
16478;SDS011;8350;52.316;10.530;2024-03-02T09:21:26;9.02;;;6.57;;
16478;SDS011;8350;52.316;10.530;2024-03-02T09:23:55;8.82;;;5.93;;
16478;SDS011;8350;52.316;10.530;2024-03-02T09:26:21;11.10;;;7.18;;
16478;SDS011;8350;52.316;10.530;2024-03-02T09:28:51;11.45;;;7.43;;
16478;SDS011;8350;52.316;10.530;2024-03-02T09:31:17;9.80;;;6.30;;
16478;SDS011;8350;52.316;10.530;2024-03-02T09:33:44;11.15;;;6.88;;
16478;SDS011;8350;52.316;10.530;2024-03-02T09:36:17;8.80;;;6.05;;
16478;SDS011;8350;52.316;10.530;2024-03-02T09:38:44;11.75;;;7.18;;
16478;SDS011;8350;52.316;10.530;2024-03-02T09:41:13;9.45;;;6.80;;
16478;SDS011;8350;52.316;10.530;2024-03-02T09:43:41;7.88;;;6.10;;
16478;SDS011;8350;52.316;10.530;2024-03-02T09:46:09;11.02;;;6.70;;
16478;SDS011;8350;52.316;10.530;2024-03-02T09:48:37;10.32;;;7.18;;
16478;SDS011;8350;52.316;10.530;2024-03-02T09:51:04;9.05;;;5.45;;
16478;SDS011;8350;52.316;10.530;2024-03-02T09:53:31;9.25;;;6.55;;
16478;SDS011;8350;52.316;10.530;2024-03-02T09:56:02;8.30;;;5.68;;
16478;SDS011;8350;52.316;10.530;2024-03-02T09:58:29;9.40;;;5.93;;
16478;SDS011;8350;52.316;10.530;2024-03-02T10:00:56;8.30;;;6.65;;
16478;SDS011;8350;52.316;10.530;2024-03-02T10:03:27;8.40;;;6.45;;
16478;SDS011;8350;52.316;10.530;2024-03-02T10:05:57;9.75;;;5.88;;
16478;SDS011;8350;52.316;10.530;2024-03-02T10:08:48;8.50;;;5.80;;
16478;SDS011;8350;52.316;10.530;2024-03-02T10:11:27;8.68;;;5.72;;
16478;SDS011;8350;52.316;10.530;2024-03-02T10:14:05;7.95;;;5.72;;
16478;SDS011;8350;52.316;10.530;2024-03-02T10:16:33;6.35;;;5.43;;
16478;SDS011;8350;52.316;10.530;2024-03-02T10:19:16;8.43;;;5.80;;
16478;SDS011;8350;52.316;10.530;2024-03-02T10:21:43;7.10;;;4.90;;
16478;SDS011;8350;52.316;10.530;2024-03-02T10:24:10;8.35;;;6.03;;
16478;SDS011;8350;52.316;10.530;2024-03-02T10:26:38;8.18;;;5.50;;
16478;SDS011;8350;52.316;10.530;2024-03-02T10:29:05;7.88;;;5.97;;
16478;SDS011;8350;52.316;10.530;2024-03-02T10:31:36;7.95;;;5.28;;
16478;SDS011;8350;52.316;10.530;2024-03-02T10:34:04;9.82;;;6.05;;
16478;SDS011;8350;52.316;10.530;2024-03-02T10:36:35;6.72;;;5.05;;
16478;SDS011;8350;52.316;10.530;2024-03-02T10:39:03;8.55;;;6.50;;
16478;SDS011;8350;52.316;10.530;2024-03-02T10:41:31;9.15;;;7.05;;
16478;SDS011;8350;52.316;10.530;2024-03-02T10:44:01;8.80;;;6.45;;
16478;SDS011;8350;52.316;10.530;2024-03-02T10:46:29;8.45;;;5.75;;
16478;SDS011;8350;52.316;10.530;2024-03-02T10:48:57;6.40;;;4.93;;
16478;SDS011;8350;52.316;10.530;2024-03-02T10:51:32;7.68;;;4.57;;
16478;SDS011;8350;52.316;10.530;2024-03-02T10:54:02;6.28;;;5.05;;
16478;SDS011;8350;52.316;10.530;2024-03-02T10:56:31;8.32;;;5.47;;
16478;SDS011;8350;52.316;10.530;2024-03-02T10:59:02;5.40;;;4.80;;
16478;SDS011;8350;52.316;10.530;2024-03-02T11:01:32;6.07;;;4.05;;
16478;SDS011;8350;52.316;10.530;2024-03-02T11:04:02;8.63;;;4.57;;
16478;SDS011;8350;52.316;10.530;2024-03-02T11:06:34;6.25;;;3.80;;
16478;SDS011;8350;52.316;10.530;2024-03-02T11:09:05;4.60;;;4.07;;
16478;SDS011;8350;52.316;10.530;2024-03-02T11:11:36;10.00;;;8.13;;
16478;SDS011;8350;52.316;10.530;2024-03-02T11:14:13;10.45;;;7.82;;
16478;SDS011;8350;52.316;10.530;2024-03-02T11:16:42;5.63;;;4.30;;
16478;SDS011;8350;52.316;10.530;2024-03-02T11:19:10;6.50;;;4.32;;
16478;SDS011;8350;52.316;10.530;2024-03-02T11:21:40;7.30;;;4.80;;
16478;SDS011;8350;52.316;10.530;2024-03-02T11:24:29;6.78;;;5.95;;
16478;SDS011;8350;52.316;10.530;2024-03-02T11:26:58;8.80;;;6.32;;
16478;SDS011;8350;52.316;10.530;2024-03-02T11:29:42;6.85;;;4.40;;
16478;SDS011;8350;52.316;10.530;2024-03-02T11:32:13;6.10;;;3.88;;
16478;SDS011;8350;52.316;10.530;2024-03-02T11:34:47;4.95;;;3.30;;
16478;SDS011;8350;52.316;10.530;2024-03-02T11:37:16;3.85;;;2.95;;
16478;SDS011;8350;52.316;10.530;2024-03-02T11:39:50;4.30;;;3.03;;
16478;SDS011;8350;52.316;10.530;2024-03-02T11:42:17;4.45;;;3.42;;
16478;SDS011;8350;52.316;10.530;2024-03-02T11:44:45;3.63;;;2.92;;
16478;SDS011;8350;52.316;10.530;2024-03-02T11:47:14;4.25;;;3.40;;
16478;SDS011;8350;52.316;10.530;2024-03-02T11:49:42;4.00;;;3.15;;
16478;SDS011;8350;52.316;10.530;2024-03-02T11:52:11;3.78;;;2.67;;
16478;SDS011;8350;52.316;10.530;2024-03-02T11:54:43;5.57;;;2.97;;
16478;SDS011;8350;52.316;10.530;2024-03-02T11:57:17;6.75;;;4.50;;
16478;SDS011;8350;52.316;10.530;2024-03-02T11:59:45;6.60;;;4.25;;
16478;SDS011;8350;52.316;10.530;2024-03-02T12:02:14;3.38;;;2.47;;
16478;SDS011;8350;52.316;10.530;2024-03-02T12:04:43;5.03;;;3.88;;
16478;SDS011;8350;52.316;10.530;2024-03-02T12:07:11;6.70;;;4.40;;
16478;SDS011;8350;52.316;10.530;2024-03-02T12:09:38;7.70;;;5.38;;
16478;SDS011;8350;52.316;10.530;2024-03-02T12:12:05;5.97;;;3.88;;
16478;SDS011;8350;52.316;10.530;2024-03-02T12:14:34;6.07;;;3.80;;
16478;SDS011;8350;52.316;10.530;2024-03-02T12:17:02;5.25;;;4.45;;
16478;SDS011;8350;52.316;10.530;2024-03-02T12:19:30;5.50;;;4.18;;
16478;SDS011;8350;52.316;10.530;2024-03-02T12:21:58;6.63;;;4.68;;
16478;SDS011;8350;52.316;10.530;2024-03-02T12:24:27;7.60;;;5.00;;
16478;SDS011;8350;52.316;10.530;2024-03-02T12:26:54;6.43;;;4.47;;
16478;SDS011;8350;52.316;10.530;2024-03-02T12:29:22;3.20;;;2.90;;
16478;SDS011;8350;52.316;10.530;2024-03-02T12:31:52;5.88;;;4.60;;
16478;SDS011;8350;52.316;10.530;2024-03-02T12:34:21;7.50;;;4.53;;
16478;SDS011;8350;52.316;10.530;2024-03-02T12:36:49;6.18;;;4.32;;
16478;SDS011;8350;52.316;10.530;2024-03-02T12:39:18;5.75;;;3.70;;
16478;SDS011;8350;52.316;10.530;2024-03-02T12:41:47;5.13;;;3.72;;
16478;SDS011;8350;52.316;10.530;2024-03-02T12:44:15;4.60;;;3.35;;
16478;SDS011;8350;52.316;10.530;2024-03-02T12:46:42;6.45;;;3.67;;
16478;SDS011;8350;52.316;10.530;2024-03-02T12:49:11;4.15;;;3.20;;
16478;SDS011;8350;52.316;10.530;2024-03-02T12:51:39;4.75;;;3.80;;
16478;SDS011;8350;52.316;10.530;2024-03-02T12:54:07;4.50;;;3.55;;
16478;SDS011;8350;52.316;10.530;2024-03-02T12:56:40;5.82;;;4.38;;
16478;SDS011;8350;52.316;10.530;2024-03-02T12:59:10;4.75;;;3.10;;
16478;SDS011;8350;52.316;10.530;2024-03-02T13:01:51;4.60;;;3.42;;
16478;SDS011;8350;52.316;10.530;2024-03-02T13:04:24;5.45;;;3.60;;
16478;SDS011;8350;52.316;10.530;2024-03-02T13:06:54;4.45;;;3.50;;
16478;SDS011;8350;52.316;10.530;2024-03-02T13:09:22;4.60;;;3.42;;
16478;SDS011;8350;52.316;10.530;2024-03-02T13:11:50;6.45;;;3.85;;
16478;SDS011;8350;52.316;10.530;2024-03-02T13:14:26;3.75;;;3.03;;
16478;SDS011;8350;52.316;10.530;2024-03-02T13:16:54;3.63;;;2.92;;
16478;SDS011;8350;52.316;10.530;2024-03-02T13:19:29;3.00;;;2.67;;
16478;SDS011;8350;52.316;10.530;2024-03-02T13:21:57;3.97;;;2.72;;
16478;SDS011;8350;52.316;10.530;2024-03-02T13:24:24;3.97;;;2.58;;
16478;SDS011;8350;52.316;10.530;2024-03-02T13:26:59;7.18;;;5.18;;
16478;SDS011;8350;52.316;10.530;2024-03-02T13:29:29;4.68;;;3.28;;
16478;SDS011;8350;52.316;10.530;2024-03-02T13:31:58;4.28;;;2.67;;
16478;SDS011;8350;52.316;10.530;2024-03-02T13:34:24;7.30;;;3.33;;
16478;SDS011;8350;52.316;10.530;2024-03-02T13:36:53;4.38;;;3.78;;
16478;SDS011;8350;52.316;10.530;2024-03-02T13:39:20;3.92;;;3.20;;
16478;SDS011;8350;52.316;10.530;2024-03-02T13:41:47;4.38;;;2.90;;
16478;SDS011;8350;52.316;10.530;2024-03-02T13:44:17;4.30;;;3.47;;
16478;SDS011;8350;52.316;10.530;2024-03-02T13:46:46;4.57;;;3.97;;
16478;SDS011;8350;52.316;10.530;2024-03-02T13:49:13;7.43;;;5.00;;
16478;SDS011;8350;52.316;10.530;2024-03-02T13:51:41;6.40;;;3.58;;
16478;SDS011;8350;52.316;10.530;2024-03-02T13:54:09;4.03;;;3.20;;
16478;SDS011;8350;52.316;10.530;2024-03-02T13:56:38;5.13;;;3.60;;
16478;SDS011;8350;52.316;10.530;2024-03-02T13:59:06;4.57;;;3.38;;
16478;SDS011;8350;52.316;10.530;2024-03-02T14:01:33;3.33;;;2.42;;
16478;SDS011;8350;52.316;10.530;2024-03-02T14:04:00;6.82;;;3.25;;
16478;SDS011;8350;52.316;10.530;2024-03-02T14:06:28;2.25;;;2.03;;
16478;SDS011;8350;52.316;10.530;2024-03-02T14:08:56;3.95;;;2.72;;
16478;SDS011;8350;52.316;10.530;2024-03-02T14:11:23;3.72;;;2.55;;
16478;SDS011;8350;52.316;10.530;2024-03-02T14:13:52;3.95;;;2.30;;
16478;SDS011;8350;52.316;10.530;2024-03-02T14:16:22;3.70;;;2.33;;
16478;SDS011;8350;52.316;10.530;2024-03-02T14:18:49;3.78;;;2.88;;
16478;SDS011;8350;52.316;10.530;2024-03-02T14:21:18;4.65;;;2.33;;
16478;SDS011;8350;52.316;10.530;2024-03-02T14:23:45;2.72;;;2.13;;
16478;SDS011;8350;52.316;10.530;2024-03-02T14:26:15;3.17;;;2.42;;
16478;SDS011;8350;52.316;10.530;2024-03-02T14:28:42;3.30;;;2.10;;
16478;SDS011;8350;52.316;10.530;2024-03-02T14:31:12;3.95;;;2.25;;
16478;SDS011;8350;52.316;10.530;2024-03-02T14:33:39;3.70;;;2.30;;
16478;SDS011;8350;52.316;10.530;2024-03-02T14:36:07;2.83;;;1.85;;
16478;SDS011;8350;52.316;10.530;2024-03-02T14:38:36;4.88;;;2.92;;
16478;SDS011;8350;52.316;10.530;2024-03-02T14:41:03;3.08;;;2.20;;
16478;SDS011;8350;52.316;10.530;2024-03-02T14:43:32;3.45;;;2.38;;
16478;SDS011;8350;52.316;10.530;2024-03-02T14:46:01;2.72;;;2.10;;
16478;SDS011;8350;52.316;10.530;2024-03-02T14:48:28;2.92;;;2.17;;
16478;SDS011;8350;52.316;10.530;2024-03-02T14:50:57;5.03;;;2.50;;
16478;SDS011;8350;52.316;10.530;2024-03-02T14:53:24;2.65;;;1.83;;
16478;SDS011;8350;52.316;10.530;2024-03-02T14:55:50;2.83;;;1.80;;